LIMG METAR and TAF | Updated Today

LIMG METAR

Villanova D'Albenga International Airport

Observation time: 2:24 hr. ago

LIMG 061750Z VRB01KT CAVOK 19/17 Q1027

Need help? Read our tutorial on how to read METARs or read the parsed version below.

Villanova D'Albenga International Airport (LIMG) METAR

  • Weather conditions on Thu, 06 Oct 2022 17:50:00 +0000 (2:24 hr. ago):
  • Present conditions: Dry
  • Clouds: Clear skies
  • Visibility: Greater than 10 km
  • Wind: Variable at 1 knots
  • Temperature: 19 celsius
  • Dew point: 17 celsius
  • Pressure: 1027 millibars
  • Remarks: None


Useful to know...

LIMG TAF

Villanova D'Albenga International Airport

TAF LIMG 061100Z 0612/0712 08010KT 9999 FEW020 BECMG 0616/0618 VRB05KT
Observation time: 9:14 hr. ago
Need help? Read our tutorial on how to read TAFs or read the parsed version below.

Parsed version of TAF for Villanova D'Albenga International Airport (LIMG)

  • From 06 October at 12:00 UTC, to day 07 of the month at 12:00 UTC
  • Clouds: A few at 610 meters
  • Visibility: Greater than 10 km
  • Wind: 80 degrees at 10
  • Expected to arise soon, from 06 October at 16:00 UTC, to day 06 of the month at 18:00 UTC
  • Wind: Variable at 5